Pengilly, Minnesota
Current Conditions -  °F | °C
As of 2:53 PM on Tuesday 27 Jan 2015 (Local Time) from KHIB Reporting Station
Overcast Overcast  
Wind Chill: 24°   Ceiling: 1200
Heat Index: 30°   Visibility: 10mi
Dew Point: 22°   Wind: 6mph
Humidity: 72%   Direction: 160°SSE
Pressure: 30.09"   Gusts: NA
Location:  47.33°N, 93.2°W
Report Text: KHIB 272053Z AUTO 16005KT 10SM OVC012 M01/M06 A3009 RMK AO2 SLP209 T10111056 55008
Loading
Personal Weather Stations






























Interactive Weather Map New forecast layout! Learn more

10-Day Weather Forecast

Advertisements
Track Severe Weather on mobile